Pagina principale
METAR-TAF:

METAR-TAF

Aeroporti :

Aeroporto di Recife-Guararapes-Gilberto Freyre

Recife, Pernambuco, Brasile

latitudine: 08-08S, longitudine: 034-55W, altezza: 19 m

Osservazione

Il bollettino è stato emesso 50 minuti fa, alle 17:00 UTC
Vento 11 kt da sud-est
Temperature 28°C
Umidità 66%
Pressione 1018 hPa
Visibilità 10 km o più
Nuvoloso ad un'altezza di 2500 ft

METAR: SBRF 161700Z 14011KT 9999 BKN025 28/21 Q1018

Ora: 14:50 (17:50 UTC)

Previsione

Il bollettino è stato emesso 1 ora e 50 minuti fa, alle 16:00 UTC
Previsione valida dal 16 alle 18 UTC al 17 alle 18 UTC
Vento 9 kt da sud-est
Visibilità: 8000 m
Nubi sparse ad un'altezza di 2200 ft

TAF: SBRF 161600Z 1618/1718 13009KT 8000 SCT022 TN25/1708Z TX28/1714Z RMK PBO

Osservazioni e previsioni meteorologiche di più di 4000 aeroporti (messaggi METAR e TAF).

Le stazioni disponibili sono rappresentate dai dischi gialli e rossi sulla carta.

Puntare il mouse per vedere il nome della stazione.

Clicca sopra per visualizzare le osservazioni e previsioni meteorologiche.

Per cambiare la mappa : fare clic sui pulsanti verdi con una croce nera per ingrandire, il pulsante verde con un trattino per diminuire, o sulla freccia verde per le mappe adiacenti.


METAR-TAF: